Nearby METAR Reports

 

RPLL - Ninoy Aquino Int, Philippines
Distance from station: 0 19km
Updated: 02/24/2018 8:00am
Few Clouds
Few Clouds
 Wind from calm
Wind: Calm
Temperature: 28°C
Heat Index: 29°C
Dew Point: 20°C
Humidity: 62%
Barometer: 1015 hPa
Clouds: Few Clouds
Visibility: 10 km
Cloud details: Few Clouds 701 m
2018/02/24 00:00 RPLL 240000Z 00000KT 9999 FEW023 28/20 Q1015 NOSIG RMK A2997
RPLB - Olongapo/Subic, Philippines
Distance from station: WNW 93km
Updated: 02/24/2018 8:00am
Mostly cloudy
Mostly cloudy
 Wind from NE
Wind: NE 13 km/h
Temperature: 27°C
Heat Index: 28°C
Dew Point: 19°C
Humidity: 62%
Barometer: 1014 hPa
Clouds: Mostly cloudy
Visibility: 10 km
Cloud details: Few Clouds 610 m
Mostly cloudy 9144 m
2018/02/24 00:00 RPLB 240000Z 05007KT 9999 FEW020 BKN300 27/19 Q1014 NOSIG RMK A2994
 
RPLC - Angeles/Pampanga, Philippines
Distance from station: NNW 101km
Updated: 02/24/2018 8:00am
Partly cloudy
Partly cloudy
 Wind from NNW
Wind: NNW 4 km/h
Temperature: 25°C
Dew Point: 19°C
Humidity: 69%
Barometer: 1017 hPa
Clouds: Partly cloudy
Visibility: 10 km
Cloud details: Few Clouds 610 m
Partly cloudy 9144 m
2018/02/24 00:00 RPLC 240000Z 34002KT 9999 FEW020 SCT300 25/19 Q1017 NOSIG RMK A3003
RPLI - Laoag Intl(Ph-Ar, Philippines
Distance from station: N 427km
Updated: 02/24/2018 8:00am
Few Clouds
Few Clouds
 Wind from ESE
Wind: ESE 4 km/h
Temperature: 26°C
Dew Point: 21°C
Humidity: 74%
Barometer: 1015 hPa
Clouds: Few Clouds
Visibility: 8 km
Cloud details: Few Clouds 579 m
2018/02/24 00:00 RPLI 240000Z 12002KT 8000 FEW019 26/21 Q1015 NOSIG RMK A2997
 
RPVM - Mactan-Cebu, Philippines
Distance from station: SE 553km
Updated: 02/24/2018 8:00am
Light rain, Showers, Overcast
Light rain, Showers, Overcast
 Wind from N
Wind: N 20 km/h
Temperature: 27°C
Heat Index: 30°C
Dew Point: 23°C
Humidity: 79%
Barometer: 1014 hPa
Summary: Light rain, Showers
Clouds: Overcast
Visibility: 7 km
Cloud details: Partly cloudy 549 m
Overcast 2743 m
2018/02/24 00:00 RPVM 240000Z 01011KT 7000 -SHRA SCT018CB OVC090 27/23 Q1014 NOSIG RMK A2994
RPVP - Puerto Princesa, Philippines
Distance from station: SE 553km
Updated: 02/24/2018 8:00am
Mostly cloudy
Mostly cloudy
 Wind from W
Wind: W 7 km/h
Temperature: 26°C
Dew Point: 21°C
Humidity: 74%
Barometer: 1013 hPa
Clouds: Mostly cloudy
Visibility: 10 km
Cloud details: Few Clouds 610 m
Mostly cloudy 7315 m
2018/02/24 00:00 RPVP 240000Z 27004KT 9999 FEW020 BKN240 26/21 Q1013 RMK A2991
 
RPMD - Davao City, Philippines
Distance from station: SE 553km
Updated: 02/24/2018 8:00am
Light rain, Showers, Overcast
Light rain, Showers, Overcast
 Wind from N
Wind: N 11 km/h
Temperature: 25°C
Dew Point: 24°C
Humidity: 94%
Barometer: 1012 hPa
Summary: Light rain, Showers
Clouds: Overcast
Visibility: 9 km
Cloud details: Partly cloudy 488 m
Mostly cloudy 2743 m
Overcast 8839 m
2018/02/24 00:00 RPMD 240000Z 01006KT 330V050 9000 -SHRA SCT016 BKN090 OVC290 25/24 Q1012 RMK A2988
RPMR - General Santos City, Philippines
Distance from station: SE 553km
Updated: 02/24/2018 8:00am
Light rain, Showers, Overcast
Light rain, Showers, Overcast
 Wind from NW
Wind: NW 11 km/h
Temperature: 25°C
Dew Point: 23°C
Humidity: 89%
Barometer: 1013 hPa
Summary: Light rain, Showers
Clouds: Overcast
Visibility: 10 km
Cloud details: Partly cloudy 457 m
Overcast 2438 m
2018/02/24 00:00 RPMR 240000Z 32006KT 9999 -SHRA SCT015 OVC080 25/23 Q1013 NOSIG RMK A2991
 
RPMZ - Zamboanga, Philippines
Distance from station: NE 14km
Updated: 02/24/2018 8:00am
Partly cloudy
Partly cloudy
 Wind from ENE
Wind: ENE 7 km/h
Temperature: 28°C
Heat Index: 31°C
Dew Point: 23°C
Humidity: 74%
Barometer: 1011 hPa
Clouds: Partly cloudy
Visibility: 10 km
Cloud details: Few Clouds 518 m
Partly cloudy 9144 m
2018/02/24 00:00 RPMZ 240000Z 06004KT 9999 FEW017 SCT300 28/23 Q1011 RMK A2985
www.000webhost.com